Aérodrome :
LOGIN :

S'inscrire | Disclaimer

   EN    FR    IT 

 










Légende :    VFR   VFR Marginal   IFR   IFR Intensif   IFR Très Intensif
Visi : 
Plafond : 
>= 8 km
>= 3000ft
5 à 8 km
1000 à 3000 ft
1500m à 5 km
500 à 1000 ft
800 à 1500m
200 à 500 ft
< 800m
< 200 ft
Symboles :   Orages  Brouillard  Fortes neiges  Fortes précipitations  Vent > 20 kt
SIGMETs :   Divers  Orages  Givrage  Turbulence  Onde Orograph.  Cendres Volcan.







- Altitude de l'aérodrome : 1487 ft
- Code IATA : MUC


EDDM - München Franz Josef Strauss

DERNIER METAR :
  • 261820Z 05003KT CAVOK 21/08 Q1020 NOSIG

METARs EXPIRÉS :
  • 261750Z 05005KT CAVOK 21/08 Q1020 NOSIG
  • 261720Z 05005KT 020V080 CAVOK 22/07 Q1020 NOSIG
  • 261650Z 05006KT 010V090 CAVOK 22/07 Q1020 NOSIG
  • 261620Z 07006KT 040V110 CAVOK 22/08 Q1019 NOSIG
  • 261550Z 06004KT 020V110 CAVOK 22/08 Q1020 NOSIG

TAF TAF EDDM
Valide du 26 à 18h jusqu'au 28 à 00h UTC


261700Z 2618/2724 VRB03KT CAVOK
BECMG 2706/2708 08007KT
Pas de NOTAMs connus pour ce terrain.



MET'MAP, la Météo Aéronautique d'un coup d'oeil ! - Copyright ORBIFLY Décembre 2007 - Disclaimer

ORBIFLY MET'MAP TEAM :

Programmation & Développement : Alexandra Zaïnal
Conception & Développement : Baudouin d'Aumeries
Co-Programmation & Développement : Marc-Olivier Méhu
Soutien technique & logistique : Manuel Goepfert

Contact : metmap@orbifly.com




SOURCES & CREDITS :

   NOAA